createdAt,value
2022-09-20T00:01:33.969Z,100.00
2022-09-20T00:04:05.523Z,100.00
2022-09-20T00:06:34.835Z,100.00
2022-09-20T00:09:03.499Z,100.00
2022-09-20T00:11:34.043Z,100.00
2022-09-20T00:14:08.503Z,100.00
2022-09-20T00:16:39.390Z,100.00
2022-09-20T00:19:07.948Z,100.00
2022-09-20T00:21:37.720Z,100.00
2022-09-20T00:24:06.093Z,100.00
2022-09-20T00:26:34.465Z,100.00
2022-09-20T00:29:02.319Z,100.00
2022-09-20T00:31:29.946Z,100.00
2022-09-20T00:34:17.493Z,100.00
2022-09-20T00:36:45.746Z,100.00
2022-09-20T00:39:15.274Z,100.00
2022-09-20T00:41:43.715Z,100.00
2022-09-20T00:44:41.009Z,100.00
2022-09-20T00:47:16.933Z,100.00
2022-09-20T00:49:45.207Z,100.00
2022-09-20T00:52:13.247Z,100.00
2022-09-20T00:54:41.259Z,100.00
2022-09-20T00:57:08.850Z,100.00
2022-09-20T00:59:40.252Z,100.00
2022-09-20T01:02:18.101Z,100.00
2022-09-20T01:04:48.250Z,100.00
2022-09-20T01:07:22.361Z,100.00
2022-09-20T01:09:50.882Z,100.00
2022-09-20T01:12:26.545Z,100.00
2022-09-20T01:14:55.339Z,100.00
2022-09-20T01:17:25.956Z,100.00
2022-09-20T01:20:14.043Z,100.00
2022-09-20T01:23:06.755Z,100.00
2022-09-20T01:26:29.102Z,100.00
2022-09-20T01:29:24.814Z,100.00
2022-09-20T01:31:57.070Z,100.00
2022-09-20T01:34:37.595Z,100.00
2022-09-20T01:37:38.783Z,100.00
2022-09-20T01:40:34.229Z,100.00
2022-09-20T01:43:15.335Z,100.00
2022-09-20T01:45:49.170Z,100.00
2022-09-20T01:48:39.175Z,100.00
2022-09-20T01:51:42.370Z,100.00
2022-09-20T01:54:37.465Z,100.00
2022-09-20T01:57:32.546Z,100.00
2022-09-20T02:00:26.479Z,100.00
2022-09-20T02:03:26.452Z,100.00
2022-09-20T02:06:00.248Z,100.00
2022-09-20T02:08:44.101Z,100.00
2022-09-20T02:11:21.508Z,100.00
2022-09-20T02:14:13.892Z,100.00
2022-09-20T02:17:03.535Z,100.00
2022-09-20T02:19:46.680Z,100.00
2022-09-20T02:22:45.257Z,100.00
2022-09-20T02:25:43.384Z,100.00
2022-09-20T02:28:28.967Z,100.00
2022-09-20T02:31:14.198Z,100.00
2022-09-20T02:33:57.284Z,100.00
2022-09-20T02:37:00.645Z,100.00
2022-09-20T02:39:59.587Z,100.00
2022-09-20T02:42:35.925Z,100.00
2022-09-20T02:45:25.923Z,100.00
2022-09-20T02:48:00.681Z,100.00
2022-09-20T02:51:08.691Z,100.00
2022-09-20T02:53:52.921Z,100.00
2022-09-20T02:56:55.659Z,100.00
2022-09-20T03:00:06.099Z,100.00
2022-09-20T03:02:52.119Z,100.00
2022-09-20T03:05:30.649Z,100.00
2022-09-20T03:08:33.859Z,100.00
2022-09-20T03:11:18.582Z,100.00
2022-09-20T03:14:23.141Z,100.00
2022-09-20T03:17:28.171Z,100.00
2022-09-20T03:20:08.615Z,100.00
2022-09-20T03:23:23.648Z,100.00
2022-09-20T03:26:00.386Z,100.00
2022-09-20T03:28:38.553Z,100.00
2022-09-20T03:31:33.688Z,100.00
2022-09-20T03:34:22.872Z,100.00
2022-09-20T03:37:15.734Z,100.00
2022-09-20T03:40:10.154Z,100.00
2022-09-20T03:42:47.126Z,100.00
2022-09-20T03:45:55.243Z,100.00
2022-09-20T03:48:43.765Z,100.00
2022-09-20T03:51:33.609Z,100.00
2022-09-20T03:54:41.768Z,100.00
2022-09-20T03:57:15.935Z,100.00
2022-09-20T03:59:43.479Z,100.00
2022-09-20T04:02:29.794Z,100.00
2022-09-20T04:05:07.633Z,100.00
2022-09-20T04:08:00.085Z,100.00
2022-09-20T04:10:54.597Z,100.00
2022-09-20T04:13:55.064Z,100.00
2022-09-20T04:16:46.671Z,100.00
2022-09-20T04:19:33.286Z,100.00
2022-09-20T04:22:02.218Z,100.00
2022-09-20T04:24:53.364Z,100.00
2022-09-20T04:27:26.466Z,100.00
2022-09-20T04:30:05.364Z,100.00
2022-09-20T04:32:58.512Z,100.00
2022-09-20T04:35:53.848Z,100.00
2022-09-20T04:38:22.744Z,100.00
2022-09-20T04:41:09.385Z,100.00
2022-09-20T04:43:51.181Z,100.00
2022-09-20T04:46:55.902Z,100.00
2022-09-20T04:49:50.018Z,100.00
2022-09-20T04:52:23.832Z,100.00
2022-09-20T04:54:57.115Z,100.00
2022-09-20T04:57:27.657Z,100.00
2022-09-20T05:00:16.781Z,100.00
2022-09-20T05:03:20.924Z,100.00
2022-09-20T05:06:13.678Z,100.00
2022-09-20T05:09:17.695Z,100.00
2022-09-20T05:12:02.949Z,100.00
2022-09-20T05:14:36.706Z,100.00
2022-09-20T05:17:22.899Z,100.00
2022-09-20T05:20:05.410Z,100.00
2022-09-20T05:23:00.696Z,100.00
2022-09-20T05:25:52.639Z,100.00
2022-09-20T05:28:45.858Z,100.00
2022-09-20T05:31:43.863Z,100.00
2022-09-20T05:34:24.430Z,100.00
2022-09-20T05:36:56.479Z,100.00
2022-09-20T05:39:36.964Z,100.00
2022-09-20T05:42:39.152Z,100.00
2022-09-20T05:45:25.531Z,100.00
2022-09-20T05:47:56.032Z,100.00
2022-09-20T05:50:45.451Z,100.00
2022-09-20T05:53:31.283Z,100.00
2022-09-20T05:56:29.827Z,100.00
2022-09-20T05:59:16.792Z,100.00
2022-09-20T06:02:08.204Z,100.00
2022-09-20T06:04:53.262Z,100.00
2022-09-20T06:07:59.266Z,100.00
2022-09-20T06:10:41.604Z,100.00
2022-09-20T06:13:22.845Z,100.00
2022-09-20T06:15:59.727Z,99.85
2022-09-20T06:18:51.549Z,98.85
2022-09-20T06:21:45.771Z,98.41
2022-09-20T06:24:37.398Z,97.35
2022-09-20T06:27:17.101Z,95.51
2022-09-20T06:29:56.042Z,92.69
2022-09-20T06:32:23.864Z,91.18
2022-09-20T06:34:52.224Z,89.96
2022-09-20T06:37:58.500Z,88.62
2022-09-20T06:40:50.697Z,87.76
2022-09-20T06:43:19.396Z,86.56
2022-09-20T06:45:48.028Z,86.00
2022-09-20T06:48:15.985Z,86.02
2022-09-20T06:50:45.327Z,85.95
2022-09-20T06:53:19.287Z,85.52
2022-09-20T06:55:48.021Z,84.80
2022-09-20T06:58:15.926Z,83.83
2022-09-20T07:00:43.569Z,82.41
2022-09-20T07:03:13.074Z,81.24
2022-09-20T07:05:41.006Z,80.05
2022-09-20T07:08:08.661Z,79.00
2022-09-20T07:10:36.326Z,78.09
2022-09-20T07:13:04.178Z,77.70
2022-09-20T07:15:33.511Z,76.40
2022-09-20T07:18:01.610Z,76.29
2022-09-20T07:20:29.509Z,74.94
2022-09-20T07:22:57.216Z,74.92
2022-09-20T07:25:24.945Z,74.85
2022-09-20T07:27:52.886Z,75.14
2022-09-20T07:30:21.597Z,75.15
2022-09-20T07:32:50.039Z,75.46
2022-09-20T07:35:18.117Z,75.16
2022-09-20T07:37:46.946Z,74.93
2022-09-20T07:40:14.942Z,74.73
2022-09-20T07:42:42.802Z,74.32
2022-09-20T07:45:12.845Z,74.00
2022-09-20T07:47:42.103Z,72.40
2022-09-20T07:50:11.235Z,71.62
2022-09-20T07:52:39.004Z,70.84
2022-09-20T07:55:07.084Z,70.29
2022-09-20T07:57:38.726Z,69.14
2022-09-20T08:00:08.524Z,68.45
2022-09-20T08:02:40.456Z,68.29
2022-09-20T08:05:08.566Z,67.65
2022-09-20T08:07:36.471Z,66.31
2022-09-20T08:10:05.256Z,65.90
2022-09-20T08:15:21.106Z,65.18
2022-09-20T08:17:49.343Z,65.06
2022-09-20T08:20:17.030Z,64.43
2022-09-20T08:22:49.828Z,64.52
2022-09-20T08:25:24.122Z,64.38
2022-09-20T08:27:55.060Z,64.59
2022-09-20T08:30:27.532Z,65.23
2022-09-20T08:32:56.121Z,65.48
2022-09-20T08:35:25.409Z,65.00
2022-09-20T08:37:56.146Z,65.81
2022-09-20T08:40:25.424Z,65.95
2022-09-20T08:42:54.783Z,66.20
2022-09-20T08:45:41.395Z,66.70
2022-09-20T08:48:17.079Z,66.36
2022-09-20T08:50:44.698Z,66.08
2022-09-20T08:53:14.933Z,66.11
2022-09-20T08:55:43.562Z,66.27
2022-09-20T08:58:14.229Z,66.45
2022-09-20T09:00:46.905Z,66.55
2022-09-20T09:03:17.228Z,66.03
2022-09-20T09:05:58.165Z,66.13
2022-09-20T09:08:31.014Z,65.61
2022-09-20T09:11:08.452Z,66.88
2022-09-20T09:13:46.966Z,67.39
2022-09-20T09:16:23.041Z,67.84
2022-09-20T09:18:53.167Z,67.96
2022-09-20T09:21:24.693Z,68.53
2022-09-20T09:24:06.149Z,68.33
2022-09-20T09:26:40.065Z,68.57
2022-09-20T09:29:20.137Z,68.34
2022-09-20T09:31:50.660Z,68.81
2022-09-20T09:34:38.811Z,68.73
2022-09-20T09:37:24.141Z,68.62
2022-09-20T09:40:18.957Z,68.10
2022-09-20T09:42:52.238Z,66.71
2022-09-20T09:45:38.706Z,65.90
2022-09-20T09:48:31.164Z,65.81
2022-09-20T09:51:19.357Z,65.72
2022-09-20T09:53:50.915Z,65.45
2022-09-20T09:56:49.801Z,64.21
2022-09-20T09:59:23.498Z,63.78
2022-09-20T10:02:19.348Z,62.56
2022-09-20T10:04:58.004Z,62.02
2022-09-20T10:07:47.744Z,61.68
2022-09-20T10:10:53.829Z,61.04
2022-09-20T10:13:41.205Z,62.11
2022-09-20T10:16:21.067Z,62.14
2022-09-20T10:18:57.654Z,61.75
2022-09-20T10:21:56.970Z,63.15
2022-09-20T10:25:18.381Z,65.47
2022-09-20T10:27:54.508Z,67.03
2022-09-20T10:30:27.294Z,67.25
2022-09-20T10:32:55.289Z,68.31
2022-09-20T10:35:35.146Z,68.82
2022-09-20T10:38:23.602Z,69.16
2022-09-20T10:41:44.821Z,69.55
2022-09-20T10:44:22.268Z,69.13
2022-09-20T10:47:06.250Z,69.25
2022-09-20T10:49:47.200Z,68.82
2022-09-20T10:52:54.630Z,67.76
2022-09-20T10:55:22.543Z,66.61
2022-09-20T10:58:20.165Z,65.39
2022-09-20T11:01:01.555Z,64.02
2022-09-20T11:03:57.520Z,62.22
2022-09-20T11:06:34.249Z,60.92
2022-09-20T11:09:05.606Z,60.30
2022-09-20T11:11:48.918Z,59.71
2022-09-20T11:14:23.181Z,59.78
2022-09-20T11:16:56.808Z,59.50
2022-09-20T11:19:45.923Z,59.69
2022-09-20T11:22:21.581Z,59.54
2022-09-20T11:25:20.007Z,60.29
2022-09-20T11:28:01.718Z,60.22
2022-09-20T11:30:33.893Z,59.14
2022-09-20T11:33:32.837Z,58.26
2022-09-20T11:36:04.429Z,57.64
2022-09-20T11:38:42.386Z,57.69
2022-09-20T11:41:39.895Z,57.41
2022-09-20T11:44:18.454Z,56.83
2022-09-20T11:47:04.608Z,56.67
2022-09-20T11:50:33.113Z,56.14
2022-09-20T11:53:42.357Z,56.52
2022-09-20T11:56:22.471Z,56.17
2022-09-20T11:58:59.354Z,55.41
2022-09-20T12:01:29.941Z,55.25
2022-09-20T12:04:31.879Z,54.46
2022-09-20T12:07:19.784Z,53.94
2022-09-20T12:09:58.193Z,54.66
2022-09-20T12:12:39.802Z,54.98
2022-09-20T12:15:25.722Z,54.92
2022-09-20T12:17:53.484Z,55.10
2022-09-20T12:20:34.333Z,55.08
2022-09-20T12:23:40.827Z,56.02
2022-09-20T12:26:38.570Z,56.53
2022-09-20T12:29:24.773Z,56.50
2022-09-20T12:31:58.064Z,56.72
2022-09-20T12:34:26.116Z,55.67
2022-09-20T12:36:57.052Z,55.21
2022-09-20T12:39:34.478Z,55.91
2022-09-20T12:42:02.309Z,56.81
2022-09-20T12:44:41.714Z,56.66
2022-09-20T12:47:12.279Z,55.78
2022-09-20T12:50:10.210Z,55.25
2022-09-20T12:53:04.244Z,54.08
2022-09-20T12:55:46.297Z,52.63
2022-09-20T12:58:14.487Z,52.34
2022-09-20T13:01:00.394Z,51.65
2022-09-20T13:03:47.023Z,51.07
2022-09-20T13:06:15.687Z,50.60
2022-09-20T13:09:04.532Z,50.85
2022-09-20T13:11:47.422Z,51.13
2022-09-20T13:14:31.980Z,52.28
2022-09-20T13:17:02.320Z,53.10
2022-09-20T13:19:34.135Z,53.54
2022-09-20T13:22:04.460Z,54.09
2022-09-20T13:24:45.135Z,54.55
2022-09-20T13:27:21.131Z,54.34
2022-09-20T13:29:49.338Z,54.35
2022-09-20T13:32:28.194Z,54.88
2022-09-20T13:35:15.511Z,54.81
2022-09-20T13:37:57.181Z,55.07
2022-09-20T13:40:34.384Z,54.98
2022-09-20T13:43:37.266Z,55.34
2022-09-20T13:46:16.469Z,55.54
2022-09-20T13:48:47.579Z,55.92
2022-09-20T13:51:26.625Z,55.88
2022-09-20T13:54:14.486Z,56.45
2022-09-20T13:56:42.698Z,56.75
2022-09-20T13:59:19.308Z,57.13
2022-09-20T14:01:55.561Z,57.84
2022-09-20T14:04:26.500Z,57.72
2022-09-20T14:06:57.312Z,56.94
2022-09-20T14:09:35.879Z,57.38
2022-09-20T14:12:06.226Z,57.47
2022-09-20T14:14:35.099Z,57.25
2022-09-20T14:17:08.862Z,57.58
2022-09-20T14:19:41.489Z,58.54
2022-09-20T14:22:17.611Z,59.70
2022-09-20T14:24:59.500Z,60.42
2022-09-20T14:27:27.649Z,61.02
2022-09-20T14:29:56.422Z,61.63
2022-09-20T14:32:43.068Z,62.20
2022-09-20T14:35:16.534Z,62.55
2022-09-20T14:37:57.027Z,62.86
2022-09-20T14:40:31.525Z,63.38
2022-09-20T14:43:05.338Z,63.90
2022-09-20T14:45:39.022Z,64.47
2022-09-20T14:48:11.335Z,64.63
2022-09-20T14:50:43.749Z,64.33
2022-09-20T14:53:11.262Z,64.04
2022-09-20T14:56:04.501Z,63.58
2022-09-20T14:58:33.123Z,63.65
2022-09-20T15:01:17.028Z,64.52
2022-09-20T15:03:44.905Z,64.38
2022-09-20T15:06:13.560Z,63.84
2022-09-20T15:08:46.367Z,63.09
2022-09-20T15:11:16.415Z,62.55
2022-09-20T15:13:44.321Z,62.59
2022-09-20T15:16:18.492Z,62.33
2022-09-20T15:18:46.695Z,61.31
2022-09-20T15:21:14.391Z,61.18
2022-09-20T15:23:42.239Z,61.14
2022-09-20T15:26:13.525Z,61.28
2022-09-20T15:28:41.394Z,61.40
2022-09-20T15:31:10.870Z,61.35
2022-09-20T15:33:38.756Z,61.20
2022-09-20T15:36:08.705Z,61.33
2022-09-20T15:38:36.316Z,61.63
2022-09-20T15:41:04.734Z,62.35
2022-09-20T15:43:33.725Z,62.72
2022-09-20T15:46:20.291Z,62.40
2022-09-20T15:48:48.227Z,63.04
2022-09-20T15:51:16.354Z,63.25
2022-09-20T15:53:55.825Z,63.91
2022-09-20T15:56:29.168Z,64.38
2022-09-20T15:58:59.380Z,64.83
2022-09-20T16:01:37.569Z,66.11
2022-09-20T16:04:09.901Z,66.54
2022-09-20T16:06:39.416Z,67.01
2022-09-20T16:09:08.328Z,68.36
2022-09-20T16:11:37.133Z,69.18
2022-09-20T16:14:05.137Z,70.74
2022-09-20T16:16:39.639Z,72.06
2022-09-20T16:19:20.919Z,73.09
2022-09-20T16:21:57.610Z,75.11
2022-09-20T16:24:27.835Z,77.03
2022-09-20T16:26:55.861Z,79.19
2022-09-20T16:29:25.648Z,80.44
2022-09-20T16:31:54.999Z,81.68
2022-09-20T16:34:30.800Z,82.94
2022-09-20T16:37:02.526Z,84.29
2022-09-20T16:39:31.839Z,85.22
2022-09-20T16:42:04.824Z,86.45
2022-09-20T16:44:35.176Z,87.79
2022-09-20T16:47:20.439Z,89.03
2022-09-20T16:49:48.557Z,89.94
2022-09-20T16:52:16.454Z,90.84
2022-09-20T16:54:44.113Z,91.31
2022-09-20T16:57:13.364Z,91.64
2022-09-20T16:59:41.323Z,92.05
2022-09-20T17:02:12.196Z,92.60
2022-09-20T17:04:40.314Z,93.20
2022-09-20T17:07:08.689Z,93.21
2022-09-20T17:09:36.272Z,93.38
2022-09-20T17:12:09.290Z,93.45
2022-09-20T17:14:37.336Z,93.98
2022-09-20T17:17:05.028Z,93.97
2022-09-20T17:19:33.411Z,93.88
2022-09-20T17:22:01.692Z,94.22
2022-09-20T17:24:30.254Z,94.56
2022-09-20T17:26:59.166Z,94.99
2022-09-20T17:29:27.689Z,95.31
2022-09-20T17:31:59.594Z,95.74
2022-09-20T17:34:29.430Z,96.05
2022-09-20T17:36:57.468Z,96.55
2022-09-20T17:39:25.336Z,97.04
2022-09-20T17:41:53.283Z,97.55
2022-09-20T17:44:21.047Z,97.79
2022-09-20T17:46:50.416Z,97.86
2022-09-20T17:49:21.589Z,98.27
2022-09-20T17:51:51.912Z,98.78
2022-09-20T17:54:20.586Z,99.58
2022-09-20T17:56:50.543Z,99.88
2022-09-20T17:59:19.958Z,100.00
2022-09-20T18:01:50.462Z,100.00
2022-09-20T18:04:20.894Z,100.00
2022-09-20T18:06:51.560Z,100.00
2022-09-20T18:09:21.772Z,100.00
2022-09-20T18:11:51.697Z,100.00
2022-09-20T18:14:23.300Z,100.00
2022-09-20T18:16:56.219Z,100.00
2022-09-20T18:19:24.385Z,100.00
2022-09-20T18:21:52.199Z,100.00
2022-09-20T18:24:19.917Z,100.00
2022-09-20T18:26:47.758Z,100.00
2022-09-20T18:29:18.876Z,100.00
2022-09-20T18:31:54.350Z,100.00
2022-09-20T18:34:24.672Z,100.00
2022-09-20T18:36:57.049Z,100.00
2022-09-20T18:39:32.448Z,100.00
2022-09-20T18:42:01.136Z,100.00
2022-09-20T18:44:32.879Z,100.00
2022-09-20T18:47:01.346Z,100.00
2022-09-20T18:49:30.317Z,100.00
2022-09-20T18:51:58.866Z,100.00
2022-09-20T18:54:30.189Z,100.00
2022-09-20T18:56:58.263Z,100.00
2022-09-20T18:59:27.419Z,100.00
2022-09-20T19:02:20.618Z,100.00
2022-09-20T19:05:00.055Z,100.00
2022-09-20T19:07:28.120Z,100.00
2022-09-20T19:10:05.915Z,100.00
2022-09-20T19:12:39.653Z,100.00
2022-09-20T19:15:10.271Z,100.00
2022-09-20T19:17:50.565Z,100.00
2022-09-20T19:20:48.317Z,100.00
2022-09-20T19:24:04.818Z,100.00
2022-09-20T19:26:38.279Z,100.00
2022-09-20T19:29:18.401Z,100.00
2022-09-20T19:31:49.857Z,100.00
2022-09-20T19:34:21.427Z,100.00
2022-09-20T19:36:58.465Z,100.00
2022-09-20T19:39:47.903Z,100.00
2022-09-20T19:43:13.800Z,100.00
2022-09-20T19:45:49.084Z,100.00
2022-09-20T19:48:38.779Z,100.00
2022-09-20T19:51:10.903Z,100.00
2022-09-20T19:53:39.627Z,100.00
2022-09-20T19:56:25.781Z,100.00
2022-09-20T19:58:56.133Z,100.00
2022-09-20T20:01:25.480Z,100.00
2022-09-20T20:03:54.375Z,100.00
2022-09-20T20:06:40.898Z,100.00
2022-09-20T20:09:29.519Z,100.00
2022-09-20T20:12:26.023Z,100.00
2022-09-20T20:15:16.135Z,100.00
2022-09-20T20:18:04.042Z,100.00
2022-09-20T20:20:50.561Z,100.00
2022-09-20T20:23:30.065Z,100.00
2022-09-20T20:26:16.562Z,100.00
2022-09-20T20:28:44.588Z,100.00
2022-09-20T20:31:12.670Z,100.00
2022-09-20T20:33:40.791Z,100.00
2022-09-20T20:36:09.040Z,100.00
2022-09-20T20:38:37.647Z,100.00
2022-09-20T20:41:08.825Z,100.00
2022-09-20T20:43:39.000Z,100.00
2022-09-20T20:46:09.380Z,100.00
2022-09-20T20:48:37.185Z,100.00
2022-09-20T20:51:10.794Z,100.00
2022-09-20T20:53:41.196Z,100.00
2022-09-20T20:56:14.359Z,100.00
2022-09-20T20:58:43.751Z,100.00
2022-09-20T21:01:27.619Z,100.00
2022-09-20T21:03:57.117Z,100.00
2022-09-20T21:06:28.256Z,100.00
2022-09-20T21:08:56.713Z,100.00
2022-09-20T21:11:33.604Z,100.00
2022-09-20T21:14:03.597Z,100.00
2022-09-20T21:16:36.163Z,100.00
2022-09-20T21:19:05.851Z,100.00
2022-09-20T21:21:36.750Z,100.00
2022-09-20T21:24:09.507Z,100.00
2022-09-20T21:26:38.423Z,100.00
2022-09-20T21:29:10.014Z,100.00
2022-09-20T21:31:40.560Z,100.00
2022-09-20T21:34:10.089Z,100.00
2022-09-20T21:36:39.554Z,100.00
2022-09-20T21:39:07.442Z,100.00
2022-09-20T21:41:37.697Z,100.00
2022-09-20T21:44:07.319Z,100.00
2022-09-20T21:46:40.014Z,100.00
2022-09-20T21:49:09.864Z,100.00
2022-09-20T21:51:40.276Z,100.00
2022-09-20T21:54:08.057Z,100.00
2022-09-20T21:56:37.680Z,100.00
2022-09-20T21:59:07.613Z,100.00
2022-09-20T22:01:38.204Z,100.00
2022-09-20T22:04:11.164Z,100.00
2022-09-20T22:06:44.190Z,100.00
2022-09-20T22:09:14.485Z,100.00
2022-09-20T22:11:44.674Z,100.00
2022-09-20T22:14:13.502Z,100.00
2022-09-20T22:16:42.990Z,100.00
2022-09-20T22:19:13.236Z,100.00
2022-09-20T22:21:46.469Z,100.00
2022-09-20T22:24:15.599Z,100.00
2022-09-20T22:26:48.736Z,100.00
2022-09-20T22:29:17.556Z,100.00
2022-09-20T22:31:47.878Z,100.00
2022-09-20T22:34:18.403Z,100.00
2022-09-20T22:36:46.525Z,100.00
2022-09-20T22:39:15.028Z,100.00
2022-09-20T22:41:43.334Z,100.00
2022-09-20T22:44:12.081Z,100.00
2022-09-20T22:46:40.360Z,100.00
2022-09-20T22:49:09.440Z,100.00
2022-09-20T22:51:37.774Z,100.00
2022-09-20T22:54:08.686Z,100.00
2022-09-20T22:56:37.418Z,100.00
2022-09-20T22:59:11.302Z,100.00
2022-09-20T23:01:42.304Z,100.00
2022-09-20T23:04:13.767Z,100.00
2022-09-20T23:06:43.403Z,100.00
2022-09-20T23:09:13.671Z,100.00
2022-09-20T23:11:42.698Z,100.00
2022-09-20T23:14:15.571Z,100.00
2022-09-20T23:16:44.413Z,100.00
2022-09-20T23:19:13.257Z,100.00
2022-09-20T23:21:42.645Z,100.00
2022-09-20T23:24:13.263Z,100.00
2022-09-20T23:26:41.987Z,100.00
2022-09-20T23:29:12.071Z,100.00
2022-09-20T23:31:45.530Z,100.00
2022-09-20T23:34:14.763Z,100.00
2022-09-20T23:36:43.207Z,100.00
2022-09-20T23:39:12.099Z,100.00
2022-09-20T23:41:41.205Z,100.00
2022-09-20T23:44:10.315Z,100.00
2022-09-20T23:46:38.872Z,100.00
2022-09-20T23:49:09.262Z,100.00
2022-09-20T23:51:37.717Z,100.00
2022-09-20T23:54:05.940Z,100.00
2022-09-20T23:56:33.629Z,100.00
2022-09-20T23:59:01.446Z,100.00
